createdAt,value
2019-05-22T00:03:58.232Z,100613.59
2019-05-22T00:09:00.714Z,100619.52
2019-05-22T00:14:03.206Z,100628.35
2019-05-22T00:19:05.794Z,100635.67
2019-05-22T00:24:08.321Z,100630.53
2019-05-22T00:29:10.868Z,100633.70
2019-05-22T00:34:13.327Z,100640.58
2019-05-22T00:39:15.816Z,100641.38
2019-05-22T00:44:18.301Z,100640.02
2019-05-22T00:49:20.790Z,100646.47
2019-05-22T00:54:29.051Z,100645.48
2019-05-22T00:59:34.077Z,100648.44
2019-05-22T01:04:36.579Z,100641.56
2019-05-22T01:09:45.205Z,100650.80
2019-05-22T01:14:47.628Z,100652.41
2019-05-22T01:19:50.111Z,100649.81
2019-05-22T01:24:52.605Z,100654.34
2019-05-22T01:29:55.082Z,100655.55
2019-05-22T01:34:57.567Z,100658.28
2019-05-22T01:40:05.555Z,100662.20
2019-05-22T01:45:08.792Z,100666.94
2019-05-22T01:50:14.062Z,100663.41
2019-05-22T01:55:16.551Z,100671.50
2019-05-22T02:00:19.043Z,100660.66
2019-05-22T02:05:21.580Z,100663.03
2019-05-22T02:10:36.091Z,100659.08
2019-05-22T02:15:38.579Z,100657.09
2019-05-22T02:20:41.072Z,100658.09
2019-05-22T02:25:43.598Z,100659.48
2019-05-22T02:30:46.103Z,100660.47
2019-05-22T02:35:48.569Z,100668.55
2019-05-22T02:40:51.060Z,100676.03
2019-05-22T02:45:53.562Z,100672.08
2019-05-22T02:50:56.049Z,100683.30
2019-05-22T02:55:58.556Z,100677.59
2019-05-22T03:01:01.039Z,100674.25
2019-05-22T03:06:03.538Z,100675.63
2019-05-22T03:11:06.021Z,100675.63
2019-05-22T03:16:08.525Z,100675.83
2019-05-22T03:21:11.007Z,100680.36
2019-05-22T03:26:13.725Z,100678.39
2019-05-22T03:31:16.112Z,100690.98
2019-05-22T03:36:18.481Z,100686.08
2019-05-22T03:41:20.972Z,100697.31
2019-05-22T03:46:29.611Z,100688.81
2019-05-22T03:51:32.099Z,100688.23
2019-05-22T03:56:34.644Z,100687.86
2019-05-22T04:01:37.153Z,100687.64
2019-05-22T04:06:39.690Z,100696.72
2019-05-22T04:11:44.881Z,100699.85
2019-05-22T04:16:47.380Z,100704.22
2019-05-22T04:21:49.865Z,100716.00
2019-05-22T04:26:52.354Z,100717.59
2019-05-22T04:31:54.850Z,100722.91
2019-05-22T04:36:57.380Z,100724.89
2019-05-22T04:41:59.865Z,100724.91
2019-05-22T04:47:02.354Z,100732.58
2019-05-22T04:52:04.845Z,100730.84
2019-05-22T04:57:07.335Z,100731.42
2019-05-22T05:02:09.815Z,100739.11
2019-05-22T05:07:12.311Z,100747.20
2019-05-22T05:12:14.808Z,100748.56
2019-05-22T05:17:17.290Z,100746.59
2019-05-22T05:22:19.790Z,100745.60
2019-05-22T05:27:22.291Z,100746.20
2019-05-22T05:32:24.783Z,100757.64
2019-05-22T05:37:27.275Z,100759.23
2019-05-22T05:42:29.767Z,100762.36
2019-05-22T05:47:32.268Z,100768.68
2019-05-22T05:52:34.750Z,100772.23
2019-05-22T05:57:40.098Z,100779.34
2019-05-22T06:02:55.530Z,100779.73
2019-05-22T06:07:45.083Z,100786.22
2019-05-22T06:12:47.571Z,100790.37
2019-05-22T06:18:24.262Z,100796.30
2019-05-22T06:23:29.872Z,100799.84
2019-05-22T06:28:35.452Z,100804.57
2019-05-22T06:33:37.915Z,100806.92
2019-05-22T06:38:55.865Z,100809.87
2019-05-22T06:44:25.777Z,100817.58
2019-05-22T06:49:31.366Z,100823.30
2019-05-22T06:54:33.851Z,100829.20
2019-05-22T06:59:36.335Z,100826.67
2019-05-22T07:04:38.817Z,100827.05
2019-05-22T07:09:41.323Z,100830.59
2019-05-22T07:14:53.041Z,100835.53
2019-05-22T07:19:55.524Z,100833.17
2019-05-22T07:24:58.055Z,100842.62
2019-05-22T07:30:00.551Z,100846.58
2019-05-22T07:35:03.078Z,100845.20
2019-05-22T07:40:05.574Z,100851.09
2019-05-22T07:45:08.218Z,100859.20
2019-05-22T07:50:10.705Z,100853.85
2019-05-22T07:55:13.211Z,100859.58
2019-05-22T08:00:15.700Z,100860.95
2019-05-22T08:05:18.196Z,100862.33
2019-05-22T08:10:20.691Z,100861.33
2019-05-22T08:15:23.168Z,100874.77
2019-05-22T08:20:25.653Z,100865.68
2019-05-22T08:25:28.145Z,100873.38
2019-05-22T08:30:30.660Z,100875.94
2019-05-22T08:35:33.152Z,100875.71
2019-05-22T08:40:35.778Z,100879.88
2019-05-22T08:45:38.246Z,100884.18
2019-05-22T08:50:40.734Z,100887.16
2019-05-22T08:55:43.239Z,100890.94
2019-05-22T09:00:45.722Z,100892.92
2019-05-22T09:05:48.238Z,100900.02
2019-05-22T09:10:50.697Z,100906.16
2019-05-22T09:15:53.199Z,100905.56
2019-05-22T09:20:55.695Z,100904.90
2019-05-22T09:25:58.188Z,100906.27
2019-05-22T09:31:00.700Z,100903.91
2019-05-22T09:36:03.237Z,100906.73
2019-05-22T09:41:05.731Z,100913.38
2019-05-22T09:46:08.259Z,100913.52
2019-05-22T09:51:10.726Z,100922.14
2019-05-22T09:56:13.226Z,100927.37
2019-05-22T10:01:15.740Z,100925.37
2019-05-22T10:06:21.519Z,100928.64
2019-05-22T10:11:20.773Z,100933.33
2019-05-22T10:16:23.261Z,100925.60
2019-05-22T10:21:25.730Z,100918.57
2019-05-22T10:26:28.227Z,100917.97
2019-05-22T10:31:30.711Z,100928.42
2019-05-22T10:36:33.304Z,100942.66
2019-05-22T10:41:35.690Z,100934.34
2019-05-22T10:46:38.196Z,100931.52
2019-05-22T10:51:40.678Z,100933.64
2019-05-22T10:56:43.180Z,100939.55
2019-05-22T11:01:45.675Z,100944.41
2019-05-22T11:06:48.168Z,100939.05
2019-05-22T11:11:50.652Z,100947.16
2019-05-22T11:16:53.197Z,100944.69
2019-05-22T11:21:57.096Z,100948.87
2019-05-22T11:26:58.175Z,100959.45
2019-05-22T11:32:00.663Z,100959.31
2019-05-22T11:37:03.192Z,100962.30
2019-05-22T11:42:05.844Z,100956.67
2019-05-22T11:47:08.321Z,100958.69
2019-05-22T11:52:10.819Z,100958.52
2019-05-22T11:57:13.306Z,100955.37
2019-05-22T12:02:15.807Z,100951.38
2019-05-22T12:07:18.297Z,100947.38
2019-05-22T12:12:20.875Z,100952.58
2019-05-22T12:17:37.451Z,100947.42
2019-05-22T12:22:25.877Z,100944.20
2019-05-22T12:27:28.366Z,100943.50
2019-05-22T12:32:30.895Z,100940.46
2019-05-22T12:37:33.384Z,100944.24
2019-05-22T12:42:35.897Z,100935.74
2019-05-22T12:47:38.390Z,100937.72
2019-05-22T12:52:40.869Z,100945.44
2019-05-22T12:57:43.372Z,100935.52
2019-05-22T13:02:45.866Z,100928.61
2019-05-22T13:07:48.345Z,100929.49
2019-05-22T13:12:51.170Z,100927.22
2019-05-22T13:17:53.488Z,100925.15
2019-05-22T13:22:56.002Z,100921.52
2019-05-22T13:27:58.485Z,100931.07
2019-05-22T13:33:00.981Z,100928.23
2019-05-22T13:38:03.489Z,100934.10
2019-05-22T13:43:05.974Z,100930.65
2019-05-22T13:48:08.463Z,100926.30
2019-05-22T13:53:10.928Z,100923.69
2019-05-22T13:58:13.445Z,100921.77
2019-05-22T14:03:15.926Z,100920.89
2019-05-22T14:08:18.434Z,100925.91
2019-05-22T14:13:20.921Z,100930.14
2019-05-22T14:18:23.420Z,100921.64
2019-05-22T14:23:25.922Z,100921.45
2019-05-22T14:28:28.412Z,100916.50
2019-05-22T14:33:30.905Z,100911.27
2019-05-22T14:38:33.472Z,100914.45
2019-05-22T14:43:35.919Z,100913.62
2019-05-22T14:48:38.481Z,100904.84
2019-05-22T14:53:40.971Z,100899.88
2019-05-22T14:58:43.456Z,100896.83
2019-05-22T15:03:45.948Z,100901.09
2019-05-22T15:08:48.539Z,100909.28
2019-05-22T15:13:50.972Z,100902.41
2019-05-22T15:18:53.461Z,100906.97
2019-05-22T15:23:55.971Z,100898.50
2019-05-22T15:28:58.450Z,100901.06
2019-05-22T15:34:00.953Z,100900.74
2019-05-22T15:39:05.337Z,100902.03
2019-05-22T15:44:06.092Z,100901.80
2019-05-22T15:49:08.588Z,100905.65
2019-05-22T15:54:11.074Z,100908.53
2019-05-22T15:59:13.555Z,100905.78
2019-05-22T16:04:16.254Z,100899.92
2019-05-22T16:09:18.779Z,100903.45
2019-05-22T16:14:21.278Z,100894.66
2019-05-22T16:19:23.787Z,100886.77
2019-05-22T16:24:26.271Z,100893.78
2019-05-22T16:29:28.784Z,100888.50
2019-05-22T16:34:31.258Z,100892.62
2019-05-22T16:39:33.765Z,100884.05
2019-05-22T16:44:36.261Z,100888.41
2019-05-22T16:49:38.744Z,100880.66
2019-05-22T16:54:41.250Z,100875.95
2019-05-22T16:59:43.759Z,100884.19
2019-05-22T17:04:46.255Z,100885.03
2019-05-22T17:09:48.755Z,100883.31
2019-05-22T17:14:51.261Z,100892.72
2019-05-22T17:19:53.761Z,100890.06
2019-05-22T17:24:56.307Z,100894.10
2019-05-22T17:29:58.759Z,100891.18
2019-05-22T17:35:01.461Z,100895.38
2019-05-22T17:40:06.508Z,100895.30
2019-05-22T17:45:09.010Z,100904.08
2019-05-22T17:50:25.335Z,100900.16
2019-05-22T17:55:14.018Z,100899.43
2019-05-22T18:00:16.554Z,100902.06
2019-05-22T18:05:19.055Z,100909.47
2019-05-22T18:10:21.555Z,100909.84
2019-05-22T18:15:24.039Z,100916.02
2019-05-22T18:20:41.404Z,100917.62
2019-05-22T18:25:29.047Z,100925.39
2019-05-22T18:30:31.544Z,100926.02
2019-05-22T18:35:34.022Z,100938.48
2019-05-22T18:40:36.523Z,100929.23
2019-05-22T18:45:39.004Z,100932.21
2019-05-22T18:50:41.482Z,100934.01
2019-05-22T18:55:44.000Z,100938.31
2019-05-22T19:00:46.622Z,100943.62
2019-05-22T19:05:49.156Z,100943.02
2019-05-22T19:10:51.642Z,100943.52
2019-05-22T19:15:54.134Z,100946.95
2019-05-22T19:20:56.640Z,100942.44
2019-05-22T19:25:59.161Z,100950.30
2019-05-22T19:31:01.683Z,100941.87
2019-05-22T19:36:04.167Z,100949.06
2019-05-22T19:41:06.659Z,100951.34
2019-05-22T19:46:09.151Z,100956.83
2019-05-22T19:51:11.734Z,100960.72
2019-05-22T19:56:14.240Z,100955.19
2019-05-22T20:01:16.738Z,100961.75
2019-05-22T20:06:19.251Z,100968.30
2019-05-22T20:11:21.757Z,100964.91
2019-05-22T20:16:24.231Z,100967.94
2019-05-22T20:21:26.783Z,100971.58
2019-05-22T20:26:29.254Z,100973.77
2019-05-22T20:31:31.761Z,100977.70
2019-05-22T20:36:34.323Z,100971.95
2019-05-22T20:41:36.741Z,100983.64
2019-05-22T20:46:39.235Z,100980.77
2019-05-22T20:51:41.723Z,100986.35
2019-05-22T20:56:44.280Z,100978.73
2019-05-22T21:01:46.782Z,100985.25
2019-05-22T21:06:55.270Z,100980.58
2019-05-22T21:11:57.769Z,100989.11
2019-05-22T21:17:00.473Z,100979.66
2019-05-22T21:22:02.999Z,100981.72
2019-05-22T21:27:05.476Z,100983.63
2019-05-22T21:32:08.174Z,100981.12
2019-05-22T21:37:10.599Z,100987.78
2019-05-22T21:42:13.113Z,100983.05
2019-05-22T21:47:15.597Z,100982.81
2019-05-22T21:52:18.125Z,100980.23
2019-05-22T21:57:20.642Z,100983.17
2019-05-22T22:02:25.975Z,100992.50
2019-05-22T22:07:28.477Z,100986.50
2019-05-22T22:12:30.975Z,100992.06
2019-05-22T22:17:33.515Z,100988.78
2019-05-22T22:22:36.001Z,100994.91
2019-05-22T22:27:38.491Z,100995.38
2019-05-22T22:32:41.015Z,101001.63
2019-05-22T22:37:43.487Z,101004.72
2019-05-22T22:42:46.019Z,101004.86
2019-05-22T22:47:48.521Z,101004.19
2019-05-22T22:52:51.013Z,101006.91
2019-05-22T22:57:53.515Z,101005.75
2019-05-22T23:02:56.013Z,101011.38
2019-05-22T23:07:58.594Z,101015.66
2019-05-22T23:13:01.089Z,101018.65
2019-05-22T23:18:03.582Z,101017.98
2019-05-22T23:23:05.539Z,101008.24
2019-05-22T23:28:08.090Z,101009.45
2019-05-22T23:33:10.549Z,101010.05
2019-05-22T23:38:13.052Z,101016.95
2019-05-22T23:43:15.554Z,101017.50
2019-05-22T23:48:18.059Z,101019.77
2019-05-22T23:53:20.572Z,101014.52
2019-05-22T23:58:23.098Z,101019.78
